Terminal Aerodrome Forecast
Issued by NWS

Home | Current Version | Previous Version | Text Only | Print | Product List | Glossary On
Versions: 1 2 3 4 5 6 7 8 9 10 11 12 13 14
000
FTUS43 KICT 250645 AAA
TAFSLN
TAF AMD
KSLN 250645Z 2507/2606 16010KT P6SM VCTS SCT040 BKN090CB
     FM250900 14009KT P6SM BKN250
     FM251600 20009KT P6SM BKN250
     FM252000 34013KT P6SM VCSH BKN025
     FM260000 36015G23KT P6SM VCSH OVC020=

USA.gov is the U.S. government's official web portal to all federal, state and local government web resources and services.